Time;durP1;ratioP1;P1;durP2;ratioP2;P2;SDS_P1;SDS_P2;PMS_P1;PMS_P2;Temp;Humidity;BMP_temperature;BMP_pressure;BME280_temperature;BME280_humidity;BME280_pressure;Samples;Min_cycle;Max_cycle;Signal;HPM_P1;HPM_P2
2022/03/26 00:01:31;;;;;;;25.67;14.30;;;19.60;35.90;;;;;;4923408;28;20454;-83
2022/03/26 03:24:27;;;;;;;;;;;;;;;;;;;;;
2022/03/26 03:32:28;;;;;;;;;;;;;;;;;;;;;
2022/03/26 03:48:50;;;;;;;25.17;15.53;;;17.80;37.10;;;;;;4769376;29;20424;-84
2022/03/26 03:51:52;;;;;;;32.13;16.10;;;17.80;37.20;;;;;;4868085;29;20445;-84
2022/03/26 03:54:35;;;;;;;30.77;15.50;;;17.80;37.00;;;;;;4883947;29;21067;-84
2022/03/26 03:57:38;;;;;;;;;;;;;;;;;;;;;
2022/03/26 04:03:37;;;;;;;27.20;16.50;;;17.80;37.10;;;;;;4972846;28;20518;-83
2022/03/26 04:22:12;;;;;;;30.63;17.00;;;17.70;37.00;;;;;;4954390;29;20446;-83
2022/03/26 04:25:11;;;;;;;26.67;15.17;;;17.70;37.20;;;;;;4956198;29;20471;-82
2022/03/26 04:28:04;;;;;;;27.33;16.27;;;17.70;37.30;;;;;;4953777;29;20474;-85
2022/03/26 04:30:41;;;;;;;27.70;15.53;;;17.70;37.30;;;;;;4948730;29;20459;-83
2022/03/26 04:37:11;;;;;;;28.70;16.07;;;17.60;37.10;;;;;;4961117;28;20575;-84
2022/03/26 04:40:03;;;;;;;23.93;15.57;;;17.60;37.30;;;;;;4960375;28;20454;-84
2022/03/26 04:42:41;;;;;;;31.57;16.93;;;17.60;37.40;;;;;;4959625;29;20443;-84
2022/03/26 04:45:39;;;;;;;28.30;16.20;;;17.50;37.30;;;;;;4939589;28;20451;-84
2022/03/26 04:52:55;;;;;;;;;;;;;;;;;;;;;
2022/03/26 04:59:07;;;;;;;32.80;17.63;;;17.50;37.40;;;;;;4890325;29;20461;-84
2022/03/26 05:05:27;;;;;;;29.73;17.97;;;17.40;37.50;;;;;;4920637;28;20472;-82
2022/03/26 05:08:27;;;;;;;28.97;16.90;;;17.40;37.70;;;;;;4970075;28;20465;-83
2022/03/26 05:17:47;;;;;;;27.13;16.23;;;17.30;37.60;;;;;;4977322;28;20487;-84
2022/03/26 05:20:34;;;;;;;29.67;17.30;;;17.40;37.70;;;;;;4974582;28;20466;-83
2022/03/26 05:23:47;;;;;;;29.13;17.10;;;17.30;37.70;;;;;;4965115;29;20439;-85
2022/03/26 05:26:38;;;;;;;26.60;15.63;;;17.30;37.80;;;;;;4970208;28;20470;-83
2022/03/26 05:29:59;;;;;;;33.30;16.90;;;17.30;37.70;;;;;;4969544;28;20447;-84
2022/03/26 05:32:38;;;;;;;29.33;16.17;;;17.30;37.80;;;;;;4969844;28;20455;-82
2022/03/26 05:35:58;;;;;;;27.97;17.20;;;17.30;37.90;;;;;;4970410;28;20439;-84
2022/03/26 05:38:46;;;;;;;28.40;16.93;;;17.30;37.80;;;;;;4913907;28;20469;-82
2022/03/26 05:41:27;;;;;;;25.67;15.80;;;17.30;37.90;;;;;;4971063;28;20452;-84
2022/03/26 05:44:28;;;;;;;29.00;16.60;;;17.30;37.90;;;;;;4969484;28;20486;-83
2022/03/26 05:47:01;;;;;;;30.10;16.90;;;17.30;37.80;;;;;;4971494;28;20479;-83
2022/03/26 05:52:53;;;;;;;27.40;15.90;;;17.30;37.90;;;;;;4966009;28;20546;-82
2022/03/26 05:55:23;;;;;;;23.87;15.57;;;17.30;37.80;;;;;;4962105;28;20454;-84
2022/03/26 05:57:52;;;;;;;24.80;15.73;;;17.30;37.90;;;;;;4955315;28;20470;-81
2022/03/26 06:00:21;;;;;;;25.37;15.17;;;17.30;37.90;;;;;;4954223;29;20443;-82
2022/03/26 06:02:49;;;;;;;29.47;16.40;;;17.30;37.90;;;;;;4969589;28;20447;-83
2022/03/26 06:05:18;;;;;;;25.40;15.37;;;17.30;37.90;;;;;;4968638;28;20539;-84
2022/03/26 06:07:51;;;;;;;26.53;15.50;;;17.30;37.90;;;;;;4969888;28;20503;-84
2022/03/26 06:10:31;;;;;;;25.90;15.40;;;17.30;37.90;;;;;;4968009;28;20462;-84
2022/03/26 06:13:08;;;;;;;28.30;15.80;;;17.30;37.80;;;;;;4969271;28;20448;-84
2022/03/26 06:15:39;;;;;;;31.30;16.97;;;17.40;37.90;;;;;;4967701;28;20439;-83
2022/03/26 06:18:13;;;;;;;30.80;16.40;;;17.40;37.80;;;;;;4966912;28;20447;-83
2022/03/26 06:20:52;;;;;;;24.30;15.13;;;17.40;37.70;;;;;;4967294;28;20458;-84
2022/03/26 06:23:34;;;;;;;25.70;16.10;;;17.50;37.80;;;;;;4967741;28;20439;-81
2022/03/26 06:26:15;;;;;;;27.40;15.93;;;17.40;37.80;;;;;;4967852;28;20470;-84
2022/03/26 06:28:58;;;;;;;29.70;15.70;;;17.50;37.90;;;;;;4963769;29;20522;-83
2022/03/26 06:31:29;;;;;;;28.10;16.83;;;17.50;37.90;;;;;;4967545;28;20439;-84
2022/03/26 06:33:58;;;;;;;26.87;15.67;;;17.40;37.70;;;;;;4966291;28;20517;-84
2022/03/26 06:36:35;;;;;;;24.87;14.50;;;17.50;37.80;;;;;;4966222;28;20467;-83
2022/03/26 06:39:37;;;;;;;32.80;16.60;;;17.60;37.90;;;;;;4965604;28;20447;-83
2022/03/26 06:42:14;;;;;;;25.37;15.13;;;17.60;37.80;;;;;;4965468;28;20466;-83
2022/03/26 06:44:53;;;;;;;29.40;15.70;;;17.70;37.60;;;;;;4964441;28;20470;-82
2022/03/26 06:47:25;;;;;;;26.10;15.77;;;17.90;37.40;;;;;;4965678;28;20463;-83
2022/03/26 06:49:56;;;;;;;23.53;15.63;;;18.00;37.40;;;;;;4965515;28;20462;-81
2022/03/26 06:52:59;;;;;;;23.23;15.90;;;18.10;37.30;;;;;;4949078;29;20492;-83
2022/03/26 06:55:30;;;;;;;26.13;16.00;;;18.20;37.20;;;;;;4967893;28;20498;-83
2022/03/26 06:58:05;;;;;;;22.60;14.87;;;18.30;37.10;;;;;;4967224;28;20471;-80
2022/03/26 07:00:33;;;;;;;21.60;14.33;;;18.40;37.10;;;;;;4967728;28;20497;-83
2022/03/26 07:03:07;;;;;;;25.20;14.30;;;18.50;36.80;;;;;;4958284;28;20451;-83
2022/03/26 07:05:55;;;;;;;25.50;15.10;;;18.50;36.90;;;;;;4966958;28;20911;-80
2022/03/26 07:08:36;;;;;;;21.37;14.80;;;18.60;36.80;;;;;;4965108;28;20443;-82
2022/03/26 07:11:10;;;;;;;23.70;13.90;;;18.70;36.80;;;;;;4972186;28;20453;-81
2022/03/26 07:13:48;;;;;;;22.63;13.83;;;18.70;36.90;;;;;;4967678;28;20443;-80
2022/03/26 07:22:14;;;;;;;32.13;17.67;;;18.90;36.80;;;;;;4972751;28;20454;-85
2022/03/26 07:24:42;;;;;;;134.73;61.80;;;18.90;38.20;;;;;;4978580;28;20472;-86
2022/03/26 07:27:11;;;;;;;159.27;64.87;;;16.70;40.40;;;;;;4969198;28;20506;-85
2022/03/26 07:29:40;;;;;;;147.93;67.13;;;15.80;42.60;;;;;;4966108;28;20443;-85
2022/03/26 07:32:09;;;;;;;152.30;67.17;;;15.10;45.00;;;;;;4964296;28;20946;-85
2022/03/26 07:34:37;;;;;;;155.87;62.40;;;14.80;45.60;;;;;;4963446;28;20454;-85
2022/03/26 07:37:05;;;;;;;152.43;65.20;;;14.80;45.80;;;;;;4965609;28;20467;-85
2022/03/26 07:39:34;;;;;;;149.00;65.60;;;14.60;46.00;;;;;;4963041;28;20506;-85
2022/03/26 07:42:02;;;;;;;150.30;62.47;;;14.30;46.60;;;;;;4963847;28;20443;-83
2022/03/26 07:44:30;;;;;;;136.83;61.13;;;14.20;47.40;;;;;;4962294;28;20482;-84
2022/03/26 07:46:59;;;;;;;136.80;59.80;;;14.50;47.80;;;;;;4965485;28;20475;-83
2022/03/26 07:49:27;;;;;;;145.20;63.20;;;14.70;47.30;;;;;;4965165;28;20993;-83
2022/03/26 07:51:55;;;;;;;134.10;59.43;;;14.80;47.20;;;;;;4965172;28;20447;-84
2022/03/26 07:54:24;;;;;;;147.50;63.53;;;15.00;46.70;;;;;;4965473;28;20447;-85
2022/03/26 07:56:52;;;;;;;138.03;57.80;;;15.00;46.30;;;;;;4966383;28;20474;-85
2022/03/26 07:59:20;;;;;;;143.20;61.57;;;15.20;46.30;;;;;;4983526;28;20446;-84
2022/03/26 08:01:48;;;;;;;134.10;56.80;;;15.10;46.20;;;;;;4986183;28;20457;-84
2022/03/26 08:04:17;;;;;;;129.47;58.57;;;15.30;46.50;;;;;;4984876;28;20485;-84
2022/03/26 08:06:46;;;;;;;120.60;54.60;;;15.50;46.70;;;;;;4984958;28;20481;-84
2022/03/26 08:09:14;;;;;;;133.37;55.47;;;15.70;45.90;;;;;;4979831;28;20456;-83
2022/03/26 08:11:42;;;;;;;117.27;50.73;;;15.90;45.00;;;;;;4955894;29;20447;-84
2022/03/26 08:14:10;;;;;;;128.57;54.37;;;16.10;45.10;;;;;;4956310;29;20452;-85
2022/03/26 08:16:38;;;;;;;136.50;59.63;;;16.30;45.00;;;;;;4959837;29;20517;-84
2022/03/26 08:19:07;;;;;;;123.87;54.20;;;16.40;44.70;;;;;;4954244;29;20495;-83
2022/03/26 08:21:37;;;;;;;115.23;53.23;;;16.50;45.20;;;;;;4963346;28;20467;-85
2022/03/26 08:24:06;;;;;;;116.17;53.80;;;16.70;45.50;;;;;;4945069;28;20448;-84
2022/03/26 08:26:37;;;;;;;102.33;48.90;;;16.70;45.10;;;;;;4962613;28;20543;-85
2022/03/26 08:29:06;;;;;;;96.00;47.87;;;16.80;45.50;;;;;;4964169;29;20482;-84
2022/03/26 08:31:35;;;;;;;114.57;52.40;;;17.20;45.00;;;;;;4962593;28;20454;-84
2022/03/26 08:34:03;;;;;;;100.73;45.57;;;17.70;44.10;;;;;;4958664;29;20447;-84
2022/03/26 08:36:31;;;;;;;97.47;48.57;;;17.80;43.70;;;;;;4963102;28;20530;-84
2022/03/26 08:39:01;;;;;;;97.73;50.27;;;18.00;43.30;;;;;;4964315;28;20475;-84
2022/03/26 08:41:29;;;;;;;113.67;52.53;;;18.10;42.70;;;;;;4963278;28;20469;-83
2022/03/26 08:43:57;;;;;;;90.00;45.00;;;18.50;43.10;;;;;;4966273;28;20447;-84
2022/03/26 08:46:25;;;;;;;87.80;45.87;;;18.70;42.80;;;;;;4964013;28;20508;-85
2022/03/26 08:48:54;;;;;;;95.40;49.00;;;18.90;41.80;;;;;;4963742;28;20446;-83
2022/03/26 08:51:22;;;;;;;90.47;44.70;;;19.30;42.80;;;;;;4948953;28;20495;-86
2022/03/26 08:53:50;;;;;;;75.73;39.33;;;20.20;41.40;;;;;;4950359;29;20448;-85
2022/03/26 08:56:19;;;;;;;79.00;39.10;;;20.10;40.60;;;;;;4959007;28;20455;-85
2022/03/26 08:58:48;;;;;;;69.93;36.97;;;20.20;39.90;;;;;;4950185;28;20477;-85
2022/03/26 09:01:16;;;;;;;76.47;40.17;;;20.20;40.20;;;;;;4953242;28;20477;-86
2022/03/26 09:03:45;;;;;;;68.97;38.00;;;20.40;40.20;;;;;;4948899;28;20448;-86
2022/03/26 09:06:14;;;;;;;66.83;31.70;;;20.30;39.90;;;;;;4957074;28;20479;-85
2022/03/26 09:08:42;;;;;;;55.43;30.00;;;20.30;40.10;;;;;;4937979;29;20502;-86
2022/03/26 09:11:10;;;;;;;54.37;29.60;;;20.20;40.20;;;;;;4952304;28;20450;-86
2022/03/26 09:13:40;;;;;;;54.33;29.23;;;20.50;40.30;;;;;;4961789;28;20447;-84
2022/03/26 09:16:08;;;;;;;48.73;28.37;;;20.70;40.10;;;;;;4957256;29;20470;-85
2022/03/26 09:18:36;;;;;;;48.30;28.87;;;20.60;40.20;;;;;;4957405;28;20495;-84
2022/03/26 09:21:04;;;;;;;48.07;29.33;;;20.90;40.60;;;;;;4961518;29;20451;-84
2022/03/26 09:23:33;;;;;;;51.13;29.57;;;21.00;39.60;;;;;;4958573;28;20998;-84
2022/03/26 09:26:04;;;;;;;48.40;26.70;;;21.20;39.50;;;;;;4965945;28;20471;-84
2022/03/26 09:28:32;;;;;;;44.80;24.90;;;21.30;38.80;;;;;;4966869;28;20417;-84
2022/03/26 09:31:02;;;;;;;40.43;24.30;;;21.30;40.70;;;;;;4966461;28;20439;-84
2022/03/26 09:33:30;;;;;;;43.97;23.87;;;21.80;39.20;;;;;;4966748;28;20509;-84
2022/03/26 09:35:58;;;;;;;43.70;24.37;;;21.40;40.50;;;;;;4965875;28;20451;-84
2022/03/26 09:38:27;;;;;;;50.20;27.00;;;20.80;40.70;;;;;;4964120;28;20505;-84
2022/03/26 09:40:55;;;;;;;39.07;24.50;;;20.80;40.90;;;;;;4966009;28;20475;-84
2022/03/26 09:43:23;;;;;;;37.67;22.53;;;21.40;39.90;;;;;;4971367;28;20445;-85
2022/03/26 09:45:51;;;;;;;42.37;24.60;;;21.40;40.10;;;;;;4976699;28;20454;-85
2022/03/26 09:48:21;;;;;;;42.50;24.33;;;21.60;38.90;;;;;;4973336;28;20443;-85
2022/03/26 09:50:49;;;;;;;47.20;25.30;;;21.20;39.40;;;;;;4967366;28;20450;-85
2022/03/26 09:53:17;;;;;;;46.63;25.30;;;20.90;41.00;;;;;;4965921;28;20454;-84
2022/03/26 09:55:45;;;;;;;40.87;23.97;;;20.70;41.40;;;;;;4964581;28;20431;-84
2022/03/26 09:58:13;;;;;;;38.50;22.60;;;21.20;39.40;;;;;;4965368;28;20456;-85
2022/03/26 10:00:41;;;;;;;47.60;27.90;;;21.90;39.40;;;;;;4963825;28;20458;-84
2022/03/26 10:03:10;;;;;;;40.20;24.40;;;22.50;38.70;;;;;;4964880;28;20447;-85
2022/03/26 10:05:40;;;;;;;39.03;22.50;;;22.70;36.70;;;;;;4964084;28;20479;-85
2022/03/26 10:08:16;;;;;;;35.93;21.30;;;22.20;38.20;;;;;;4965015;28;20486;-84
2022/03/26 10:10:48;;;;;;;27.93;17.77;;;21.70;38.30;;;;;;4964697;28;20480;-85
2022/03/26 10:13:34;;;;;;;29.37;15.37;;;21.50;39.20;;;;;;4964913;28;20456;-84
2022/03/26 10:16:03;;;;;;;22.33;13.50;;;21.90;38.30;;;;;;4957840;28;20942;-85
2022/03/26 10:18:41;;;;;;;21.33;13.60;;;22.50;37.50;;;;;;4970611;28;20446;-84
2022/03/26 10:21:13;;;;;;;27.87;14.43;;;22.90;35.70;;;;;;4995603;28;20468;-85
2022/03/26 10:23:42;;;;;;;23.47;15.03;;;23.00;35.60;;;;;;4981525;28;20475;-85
2022/03/26 10:26:11;;;;;;;25.80;14.73;;;23.10;36.60;;;;;;4983905;28;20466;-85
2022/03/26 10:28:40;;;;;;;27.73;16.60;;;23.50;35.40;;;;;;4977651;28;20502;-85
2022/03/26 10:34:15;;;;;;;24.97;15.57;;;23.30;36.80;;;;;;4958056;28;20421;-86
2022/03/26 10:36:46;;;;;;;24.67;14.20;;;22.50;37.20;;;;;;4956456;28;20458;-86
2022/03/26 10:39:18;;;;;;;34.00;13.50;;;22.10;39.00;;;;;;4956259;28;20474;-87
2022/03/26 10:41:46;;;;;;;19.13;12.50;;;22.30;38.20;;;;;;4957246;28;20497;-85
2022/03/26 10:44:16;;;;;;;20.50;11.77;;;23.20;37.50;;;;;;4956472;28;20539;-86
2022/03/26 10:46:48;;;;;;;18.93;11.07;;;23.70;35.90;;;;;;4944657;28;20537;-85
2022/03/26 10:49:26;;;;;;;14.37;10.50;;;23.50;36.80;;;;;;4937501;29;20482;-85
2022/03/26 10:51:56;;;;;;;15.73;9.50;;;23.80;36.30;;;;;;4954274;29;20923;-85
2022/03/26 10:54:31;;;;;;;13.70;9.90;;;23.90;36.30;;;;;;4956392;28;20478;-85
2022/03/26 10:56:59;;;;;;;12.30;9.80;;;24.10;35.90;;;;;;4948548;28;20529;-85
2022/03/26 10:59:28;;;;;;;12.87;9.17;;;24.10;36.60;;;;;;4937391;29;20452;-85
2022/03/26 11:01:57;;;;;;;18.70;10.67;;;24.50;36.10;;;;;;4937271;29;20527;-85
2022/03/26 11:04:26;;;;;;;18.70;10.63;;;24.60;35.30;;;;;;4941356;29;20437;-85
2022/03/26 11:06:56;;;;;;;14.33;10.50;;;24.40;35.10;;;;;;4956296;28;20544;-85
2022/03/26 11:09:27;;;;;;;28.77;16.50;;;22.70;37.90;;;;;;4956224;28;20442;-85
2022/03/26 11:11:56;;;;;;;16.33;11.10;;;22.80;38.80;;;;;;4956517;28;20425;-85
2022/03/26 11:14:25;;;;;;;18.03;10.53;;;22.70;37.40;;;;;;4956535;28;20447;-85
2022/03/26 11:17:01;;;;;;;16.63;11.60;;;22.80;38.40;;;;;;4957398;28;20530;-85
2022/03/26 11:19:35;;;;;;;21.57;13.00;;;22.80;37.90;;;;;;4973367;28;20437;-85
2022/03/26 11:22:15;;;;;;;15.80;11.23;;;22.40;39.10;;;;;;4977911;28;20435;-86
2022/03/26 11:25:17;;;;;;;16.93;9.80;;;22.40;39.30;;;;;;4978409;28;20386;-85
2022/03/26 11:27:54;;;;;;;16.90;9.80;;;22.10;39.50;;;;;;4975076;28;20520;-86
2022/03/26 11:30:28;;;;;;;15.50;9.60;;;21.90;39.80;;;;;;4950982;28;20436;-86
2022/03/26 11:32:57;;;;;;;13.77;10.13;;;21.80;40.40;;;;;;4936739;29;20459;-86
2022/03/26 11:35:25;;;;;;;15.13;9.07;;;22.10;40.50;;;;;;4948700;29;20546;-86
2022/03/26 11:38:00;;;;;;;12.33;6.50;;;22.20;40.30;;;;;;4958026;28;20446;-84
2022/03/26 11:40:48;;;;;;;21.70;7.33;;;22.20;39.90;;;;;;4957101;28;20450;-85
2022/03/26 11:43:17;;;;;;;13.53;7.57;;;22.10;39.30;;;;;;4955494;28;20512;-86
2022/03/26 11:51:24;;;;;;;6.17;4.73;;;23.40;38.00;;;;;;4936107;29;20475;-85
2022/03/26 11:53:59;;;;;;;5.23;4.57;;;23.80;37.60;;;;;;4948904;28;20490;-85
2022/03/26 11:56:27;;;;;;;11.47;5.50;;;24.00;37.00;;;;;;4955668;28;20490;-86
2022/03/26 11:59:06;;;;;;;15.70;6.10;;;23.80;37.00;;;;;;4956198;28;20608;-84
2022/03/26 12:01:37;;;;;;;4.70;4.20;;;23.80;37.00;;;;;;4956538;28;20481;-84
2022/03/26 12:04:12;;;;;;;10.93;6.00;;;24.10;36.70;;;;;;4956647;28;20455;-87
2022/03/26 12:06:44;;;;;;;8.40;6.37;;;24.10;37.10;;;;;;4958080;28;20470;-85
2022/03/26 12:09:28;;;;;;;6.10;4.70;;;24.10;37.00;;;;;;4961879;28;20499;-83
2022/03/26 12:12:16;;;;;;;5.03;4.00;;;23.80;37.20;;;;;;4958814;28;20472;-85
2022/03/26 12:15:21;;;;;;;9.00;5.60;;;23.90;37.40;;;;;;4961240;28;20462;-84
2022/03/26 12:17:50;;;;;;;8.87;5.97;;;24.10;36.80;;;;;;4962782;28;20512;-85
2022/03/26 12:20:19;;;;;;;7.40;4.90;;;24.20;37.00;;;;;;4955895;28;20456;-85
2022/03/26 12:22:50;;;;;;;13.80;5.23;;;24.10;37.40;;;;;;4956287;28;20454;-83
2022/03/26 12:25:32;;;;;;;7.77;5.10;;;24.30;37.70;;;;;;4962645;28;20512;-85
2022/03/26 12:28:00;;;;;;;8.50;4.60;;;24.40;36.90;;;;;;4946747;29;20512;-84
2022/03/26 12:30:28;;;;;;;4.30;3.50;;;24.30;38.20;;;;;;4958790;28;20457;-84
2022/03/26 12:32:58;;;;;;;8.37;4.00;;;24.60;37.40;;;;;;4957067;28;20465;-84
2022/03/26 12:35:27;;;;;;;8.87;4.23;;;24.60;37.00;;;;;;4960843;28;20445;-83
2022/03/26 12:37:55;;;;;;;9.17;4.73;;;24.50;36.00;;;;;;4958816;28;20489;-85
2022/03/26 12:40:24;;;;;;;8.20;4.40;;;24.50;36.40;;;;;;4957180;28;20481;-85
2022/03/26 12:42:54;;;;;;;7.47;3.93;;;24.40;36.80;;;;;;4957517;28;20428;-83
2022/03/26 12:45:24;;;;;;;4.93;4.40;;;24.50;37.10;;;;;;4956597;29;20433;-84
2022/03/26 12:47:52;;;;;;;6.77;4.00;;;24.60;36.80;;;;;;4957218;28;20855;-85
2022/03/26 12:50:21;;;;;;;4.97;3.80;;;24.60;37.00;;;;;;4959037;28;20451;-83
2022/03/26 12:52:49;;;;;;;5.13;4.10;;;24.50;37.00;;;;;;4959291;28;20460;-84
2022/03/26 12:55:18;;;;;;;8.47;4.03;;;24.40;37.20;;;;;;4962510;28;20460;-84
2022/03/26 13:00:34;;;;;;;4.70;4.20;;;25.10;36.70;;;;;;4963160;28;20455;-84
2022/03/26 13:03:06;;;;;;;4.93;4.27;;;25.00;35.90;;;;;;4960212;28;20417;-82
2022/03/26 13:05:35;;;;;;;5.93;4.00;;;25.10;36.10;;;;;;4962117;28;20417;-83
2022/03/26 13:08:05;;;;;;;8.90;5.03;;;24.90;36.60;;;;;;4942839;28;20442;-84
2022/03/26 13:10:34;;;;;;;6.13;3.60;;;24.80;37.00;;;;;;4958008;29;20466;-82
2022/03/26 13:13:06;;;;;;;15.87;7.70;;;24.40;37.80;;;;;;4958212;28;20490;-83
2022/03/26 13:15:35;;;;;;;4.73;4.17;;;24.70;38.10;;;;;;4964381;28;20446;-81
2022/03/26 13:18:05;;;;;;;7.63;4.47;;;26.00;36.90;;;;;;4964372;28;20459;-82
2022/03/26 13:20:34;;;;;;;7.17;4.00;;;26.40;35.20;;;;;;4965543;28;20481;-83
2022/03/26 13:23:03;;;;;;;13.43;4.00;;;26.40;35.00;;;;;;4964461;28;20787;-82
2022/03/26 13:25:39;;;;;;;6.37;3.30;;;26.60;35.00;;;;;;4966656;28;20426;-82
2022/03/26 13:28:16;;;;;;;5.33;3.00;;;26.60;34.60;;;;;;4966327;28;20492;-83
2022/03/26 13:30:45;;;;;;;7.37;4.20;;;26.80;34.60;;;;;;4988343;28;20429;-83
2022/03/26 13:33:17;;;;;;;6.27;3.37;;;26.20;35.10;;;;;;4998499;28;20408;-82
2022/03/26 13:35:50;;;;;;;5.93;3.30;;;26.10;35.50;;;;;;4999035;28;20421;-80
2022/03/26 13:38:18;;;;;;;4.90;3.07;;;25.80;36.70;;;;;;4981329;28;20451;-84
2022/03/26 13:40:46;;;;;;;4.83;3.10;;;25.60;36.80;;;;;;4972128;28;20799;-83
2022/03/26 13:43:16;;;;;;;3.07;2.77;;;24.90;38.30;;;;;;4968833;28;20430;-83
2022/03/26 13:45:44;;;;;;;4.50;2.83;;;24.50;38.80;;;;;;4968370;28;20426;-83
2022/03/26 13:48:13;;;;;;;3.13;2.60;;;24.20;39.30;;;;;;4951920;29;20451;-85
2022/03/26 13:50:47;;;;;;;6.50;2.60;;;23.80;39.80;;;;;;4948783;29;20454;-83
2022/03/26 13:53:39;;;;;;;3.53;2.40;;;23.50;40.70;;;;;;4958042;28;20444;-84
2022/03/26 13:56:08;;;;;;;2.80;1.90;;;23.30;41.00;;;;;;4947449;29;20450;-83
2022/03/26 13:58:38;;;;;;;3.20;2.30;;;23.80;41.00;;;;;;4963543;29;20439;-82
2022/03/26 14:01:06;;;;;;;7.70;1.90;;;24.40;39.90;;;;;;4965527;28;20474;-85
2022/03/26 14:03:40;;;;;;;2.30;2.10;;;24.90;38.30;;;;;;4964232;28;20437;-83
2022/03/26 14:06:08;;;;;;;2.47;2.07;;;25.40;37.80;;;;;;4970073;28;20467;-83
2022/03/26 14:08:36;;;;;;;1.60;1.50;;;25.60;36.60;;;;;;4966708;28;20449;-83
2022/03/26 14:11:04;;;;;;;2.20;1.90;;;25.60;36.40;;;;;;4969198;28;20425;-81
2022/03/26 14:13:33;;;;;;;1.93;1.83;;;25.70;36.30;;;;;;4968731;28;20451;-82
2022/03/26 14:16:02;;;;;;;1.90;1.70;;;25.50;36.10;;;;;;4966176;28;20478;-81
2022/03/26 14:18:30;;;;;;;2.70;2.27;;;25.20;37.40;;;;;;4965832;28;20475;-84
2022/03/26 14:20:59;;;;;;;2.23;2.13;;;24.30;38.10;;;;;;4962321;28;20455;-84
2022/03/26 14:23:27;;;;;;;3.10;1.90;;;23.70;39.50;;;;;;4965734;28;20474;-86
2022/03/26 14:25:55;;;;;;;1.57;1.47;;;24.00;40.80;;;;;;4967445;28;20430;-82
2022/03/26 14:28:26;;;;;;;1.90;1.73;;;24.40;40.00;;;;;;4964449;28;20482;-80
2022/03/26 14:30:54;;;;;;;2.70;1.90;;;24.80;38.80;;;;;;4965209;28;20421;-84
2022/03/26 14:33:24;;;;;;;1.37;1.20;;;25.30;38.00;;;;;;4963256;28;20502;-83
2022/03/26 14:36:00;;;;;;;5.37;2.80;;;26.00;36.40;;;;;;4966576;28;20507;-83
2022/03/26 14:38:30;;;;;;;4.57;2.40;;;25.80;37.50;;;;;;4966746;28;20450;-84
2022/03/26 14:41:01;;;;;;;1.90;1.80;;;26.50;37.00;;;;;;4964936;28;20510;-84
2022/03/26 14:43:29;;;;;;;3.97;1.80;;;27.40;35.40;;;;;;4967547;28;20483;-84
2022/03/26 14:45:58;;;;;;;1.53;1.43;;;28.40;34.00;;;;;;4967967;28;20462;-85
2022/03/26 14:48:28;;;;;;;1.70;1.60;;;28.30;32.00;;;;;;4967395;28;20474;-85
2022/03/26 14:50:56;;;;;;;1.67;1.57;;;28.30;32.20;;;;;;4966686;28;21060;-83
2022/03/26 14:53:24;;;;;;;2.30;1.67;;;27.90;32.30;;;;;;4967039;28;20445;-82
2022/03/26 14:55:54;;;;;;;1.87;1.77;;;27.40;33.10;;;;;;4967329;28;20482;-84
2022/03/26 14:58:22;;;;;;;7.03;1.87;;;27.00;33.80;;;;;;4967950;28;20429;-83
2022/03/26 15:00:50;;;;;;;3.67;2.43;;;26.80;34.00;;;;;;4965221;28;20533;-83
2022/03/26 15:03:19;;;;;;;2.97;2.77;;;26.40;34.40;;;;;;4964464;28;20445;-84
2022/03/26 15:05:48;;;;;;;3.47;2.97;;;25.80;35.30;;;;;;4965467;28;21004;-81
2022/03/26 15:08:17;;;;;;;4.30;3.33;;;25.70;36.30;;;;;;4964873;28;20822;-83
2022/03/26 15:10:46;;;;;;;3.03;2.73;;;25.70;35.90;;;;;;4965452;28;20450;-83
2022/03/26 15:13:14;;;;;;;2.30;2.10;;;25.60;35.80;;;;;;4965492;28;20426;-85
2022/03/26 15:19:27;;;;;;;2.07;1.80;;;26.20;36.60;;;;;;4943395;29;20568;-83
2022/03/26 15:22:34;;;;;;;2.77;1.63;;;27.40;35.40;;;;;;4946765;28;20459;-82
2022/03/26 15:25:21;;;;;;;2.63;1.60;;;28.40;33.90;;;;;;4961310;28;20442;-83
2022/03/26 15:28:08;;;;;;;1.70;1.50;;;29.10;31.80;;;;;;4958410;28;20554;-83
2022/03/26 15:30:59;;;;;;;1.60;1.50;;;30.10;30.80;;;;;;4957397;28;20445;-83
2022/03/26 15:33:47;;;;;;;2.50;1.20;;;30.60;30.10;;;;;;4949110;28;20542;-82
2022/03/26 15:36:15;;;;;;;1.27;1.27;;;31.10;29.50;;;;;;4959354;28;21007;-83
2022/03/26 15:38:45;;;;;;;1.60;1.50;;;31.30;29.00;;;;;;4964081;28;20443;-83
2022/03/26 15:41:18;;;;;;;1.63;1.53;;;31.00;29.00;;;;;;4965008;28;20486;-83
2022/03/26 15:43:48;;;;;;;1.40;1.30;;;30.30;29.50;;;;;;4963273;28;20439;-83
2022/03/26 15:46:21;;;;;;;1.80;1.70;;;29.70;30.00;;;;;;4963581;28;21020;-83
2022/03/26 15:48:50;;;;;;;1.50;1.30;;;29.20;30.70;;;;;;4962374;28;20474;-83
2022/03/26 15:51:18;;;;;;;1.60;1.50;;;28.90;31.40;;;;;;4972211;28;20482;-83
2022/03/26 15:53:50;;;;;;;1.60;1.50;;;28.40;31.90;;;;;;4962060;28;20464;-83
2022/03/26 15:56:28;;;;;;;2.90;1.70;;;28.20;32.60;;;;;;4960383;28;20478;-83
2022/03/26 15:59:03;;;;;;;1.63;1.53;;;27.90;33.00;;;;;;4962438;28;20431;-83
2022/03/26 16:01:34;;;;;;;1.57;1.47;;;27.70;33.30;;;;;;4970136;28;20461;-83
2022/03/26 16:04:02;;;;;;;2.17;1.47;;;27.50;33.80;;;;;;4966786;28;20478;-83
2022/03/26 16:06:30;;;;;;;1.50;1.40;;;27.30;34.00;;;;;;4958025;28;20475;-83
2022/03/26 16:09:00;;;;;;;1.83;1.70;;;27.20;34.30;;;;;;4966566;28;20470;-84
2022/03/26 16:11:34;;;;;;;3.20;1.63;;;27.10;34.50;;;;;;4963152;28;20455;-86
2022/03/26 16:14:10;;;;;;;1.80;1.70;;;27.00;34.70;;;;;;4954117;28;20444;-85
2022/03/26 16:26:57;;;;;;;3.63;2.00;;;26.60;35.20;;;;;;4905118;28;20455;-85
2022/03/26 16:44:48;;;;;;;2.40;1.73;;;25.90;35.80;;;;;;4921867;29;20423;-84
2022/03/26 16:55:44;;;;;;;1.90;1.70;;;25.50;36.20;;;;;;4964272;28;20447;-83
2022/03/26 16:59:31;;;;;;;2.33;1.50;;;25.40;36.40;;;;;;4913787;28;20485;-84
2022/03/26 17:05:43;;;;;;;2.60;2.10;;;25.10;36.60;;;;;;4810653;29;20467;-84
2022/03/26 17:08:42;;;;;;;2.20;2.00;;;25.00;36.70;;;;;;4855608;29;20423;-84
2022/03/26 17:33:31;;;;;;;7.03;1.93;;;24.40;37.20;;;;;;4798511;29;20458;-84
2022/03/26 17:36:14;;;;;;;3.10;1.60;;;24.30;37.30;;;;;;4894853;29;20442;-83
2022/03/26 18:04:11;;;;;;;;;;;;;;;;;;;;;
2022/03/26 18:16:32;;;;;;;2.80;2.60;;;23.40;37.80;;;;;;4790441;29;20489;-83
2022/03/26 19:23:23;;;;;;;2.90;2.20;;;22.40;38.50;;;;;;4681667;30;20448;-85
2022/03/26 19:44:07;;;;;;;3.60;1.90;;;22.10;38.60;;;;;;4813638;29;20443;-85
2022/03/26 19:50:59;;;;;;;2.40;2.07;;;22.00;38.60;;;;;;4869904;29;20472;-85
2022/03/26 19:58:09;;;;;;;2.73;1.90;;;22.00;38.70;;;;;;4791609;29;20499;-84
2022/03/26 20:13:25;;;;;;;;;;;;;;;;;;;;;
2022/03/26 20:35:36;;;;;;;2.13;2.00;;;21.40;39.10;;;;;;4770101;29;20546;-82
2022/03/26 20:38:36;;;;;;;2.23;1.90;;;21.30;39.10;;;;;;4746466;30;20462;-85
2022/03/26 20:48:39;;;;;;;2.00;1.77;;;21.20;39.20;;;;;;4971034;23;20479;-85
2022/03/26 20:59:21;;;;;;;2.30;2.10;;;21.10;39.30;;;;;;4770513;29;20588;-85
2022/03/26 21:11:18;;;;;;;2.57;2.30;;;20.90;39.40;;;;;;4804829;29;20472;-86
2022/03/26 21:29:36;;;;;;;3.13;1.80;;;20.70;39.80;;;;;;4852994;29;20551;-86
2022/03/26 21:32:51;;;;;;;4.47;2.60;;;20.60;39.90;;;;;;4852549;29;20480;-85
2022/03/26 21:42:58;;;;;;;2.73;2.03;;;20.50;40.00;;;;;;4756591;30;20480;-85
2022/03/26 21:45:55;;;;;;;2.43;2.23;;;20.50;40.00;;;;;;4836778;29;20455;-85
2022/03/26 21:48:56;;;;;;;1.97;1.87;;;20.50;40.10;;;;;;4876963;29;20472;-83
2022/03/26 21:51:28;;;;;;;3.03;1.97;;;20.40;40.20;;;;;;4908364;29;20473;-85
2022/03/26 21:54:44;;;;;;;;;;;;;;;;;;;;;
2022/03/26 22:43:54;;;;;;;2.93;2.00;;;20.00;40.40;;;;;;4923534;29;20428;-83
2022/03/26 22:47:46;;;;;;;;;;;;;;;;;;;;;
2022/03/26 22:54:16;;;;;;;3.10;2.07;;;20.00;40.50;;;;;;4789474;29;20480;-83
2022/03/26 22:57:29;;;;;;;2.63;2.20;;;19.90;40.50;;;;;;4893224;29;20554;-83
2022/03/26 23:00:29;;;;;;;2.97;2.40;;;19.90;40.40;;;;;;4884229;29;20450;-83
2022/03/26 23:03:20;;;;;;;3.37;2.40;;;19.90;40.40;;;;;;4885107;29;20498;-84
2022/03/26 23:05:49;;;;;;;2.40;2.20;;;19.90;40.50;;;;;;4885648;29;20461;-84
2022/03/26 23:08:20;;;;;;;3.00;2.70;;;19.90;40.40;;;;;;4884766;29;20454;-83
2022/03/26 23:10:48;;;;;;;4.40;2.10;;;19.80;40.40;;;;;;4887108;29;20435;-83
2022/03/26 23:13:18;;;;;;;2.40;2.20;;;19.90;40.50;;;;;;4887595;29;20501;-84
2022/03/26 23:15:46;;;;;;;3.00;2.33;;;19.80;40.50;;;;;;4900498;29;20473;-84
2022/03/26 23:18:18;;;;;;;2.70;2.33;;;19.80;40.40;;;;;;4906179;29;20495;-83
2022/03/26 23:20:48;;;;;;;2.40;2.20;;;19.80;40.50;;;;;;4907112;29;20477;-84
2022/03/26 23:23:16;;;;;;;2.37;2.17;;;19.80;40.40;;;;;;4907799;29;20450;-84
2022/03/26 23:25:44;;;;;;;2.60;2.40;;;19.80;40.50;;;;;;4905204;29;20470;-84
2022/03/26 23:28:13;;;;;;;4.37;2.60;;;19.80;40.40;;;;;;4905091;29;20477;-84